Terminal Aerodrome Forecast
Issued by NWS Shreveport, LA

Home | Current Version | Previous Version | Text Only | Print | Product List | Glossary On
Versions: 1 2 3 4 5 6 7 8 9 10 11 12 13 14 15 16
000
FTUS44 KSHV 291123
TAFELD
TAF
KELD 291123Z 2912/3012 12008KT P6SM SCT020
      TEMPO 2912/2914 OVC015
     FM291700 18012G18KT P6SM SCT040
     FM300000 21005KT P6SM SKC
     FM300600 VRB04KT P6SM VCTS BKN030CB
      TEMPO 3009/3012 3SM TSRA BR OVC015CB=

USA.gov is the U.S. government's official web portal to all federal, state and local government web resources and services.